Talkeetna, AK (99676)

8:19 PM AKST on December 04, 2016 (GMT -0900)
Talkeetna | | Change Station
Active Advisory: Wind Chill Advisory

Elev 358 ft 62.32 °N, 150.09 °W | Updated 26 minutes ago

Clear
Clear
4 °F
Feels Like -7 °F
N
6
Wind Variable Wind from North

Today
High -- | Low -- °F
--% Chance of Precip.
Yesterday
High -- | Low -- °F
Precip. -- in
Pressure 30.41 in
Visibility 10.0 miles
Clouds Clear
Windchill -7 °F
Dew Point -11 °F
Humidity 50%
Rainfall 0.00 in
Snow Depth Not available.
10:05 AM 3:36 PM
Waxing Crescent, 28% visible
METAR PATK 050453Z AUTO 35005KT 10SM CLR M16/M24 A3037 RMK AO2 SLP296 T11561239 TSNO $
Pressure 30.41 in
Visibility 10.0 miles
Clouds Clear
Windchill -7 °F
Dew Point -11 °F
Humidity 50%
Rainfall 0.00 in
Snow Depth Not available.
10:05 AM 3:36 PM
Waxing Crescent, 28% visible
METAR PATK 050453Z AUTO 35005KT 10SM CLR M16/M24 A3037 RMK AO2 SLP296 T11561239 TSNO $

10-Day Weather Forecast

Almanac

Astronomy

Dec. 04, 2016 Rise Set
Actual Time
Civil Twilight
Nautical Twilight
Astronomical Twilight
Moon
Length of Visible Light
Length of Day
Tomorrow will be .
, % of the Moon is Illuminated

Today's Extremes

State Highs State Lows

Community

WunderPhotos

Upload Photos

1,955,765 photos uploaded!

WunderBlog® & News

Nearby

Air Quality

  Air Quality AQ Index Pollutant
Not available.

Snow Depth

Station Depth Elevation

Earthquake Activity

City Distance Mag. Time & Date
Minimum magnitude displayed is 2.5.

Coastal Water Temperatures

Place Temperature

Stations

Nearby Weather Stations

Station Location Temp. Windchill Dew Point Humidity Wind Precip. Elev Updated Type
                   

Watches & Warnings

Wind Chill Advisory
Issued: 3:45 PM AKST Dec. 4, 2016 – National Weather Service

... Wind Chill Advisory remains in effect until 11 am akst
Monday through Broad Pass...

* location... Broad Pass and north.

* Wind... north wind 20 to 35 mph.

* Wind chill values... 35 to 50 below zero.

* Timing... very cold wind chills will continue into Monday
morning. Winds will gradually diminish through the day Monday.

* Impacts... increased risk of hypothermia and frostbite.

Precautionary/preparedness actions...

A Wind Chill Advisory means that very cold air and strong winds
will combine to generate low wind chills. This will result in
frostbite and lead to hypothermia if precautions are not taken.